createdAt,value
2023-02-25T00:01:14.603Z,93.35
2023-02-25T00:03:42.214Z,93.08
2023-02-25T00:06:13.550Z,92.39
2023-02-25T00:08:45.615Z,91.95
2023-02-25T00:11:14.790Z,93.21
2023-02-25T00:13:43.160Z,93.38
2023-02-25T00:16:11.315Z,93.06
2023-02-25T00:18:40.859Z,93.42
2023-02-25T00:21:15.171Z,94.19
2023-02-25T00:23:47.885Z,93.61
2023-02-25T00:26:17.245Z,94.13
2023-02-25T00:28:44.818Z,94.03
2023-02-25T00:31:30.014Z,94.00
2023-02-25T00:33:56.989Z,93.65
2023-02-25T00:36:26.466Z,93.98
2023-02-25T00:38:56.966Z,93.60
2023-02-25T00:41:28.574Z,93.82
2023-02-25T00:44:01.445Z,93.68
2023-02-25T00:46:30.786Z,93.37
2023-02-25T00:48:59.094Z,93.78
2023-02-25T00:51:30.641Z,94.58
2023-02-25T00:53:58.323Z,94.31
2023-02-25T00:56:27.088Z,94.12
2023-02-25T00:58:54.484Z,93.93
2023-02-25T01:01:31.213Z,93.97
2023-02-25T01:04:01.074Z,93.82
2023-02-25T01:06:29.837Z,94.23
2023-02-25T01:08:58.823Z,94.28
2023-02-25T01:11:33.535Z,93.84
2023-02-25T01:14:05.532Z,93.62
2023-02-25T01:16:35.059Z,93.83
2023-02-25T01:19:19.715Z,93.64
2023-02-25T01:21:51.670Z,93.93
2023-02-25T01:24:27.718Z,94.56
2023-02-25T01:26:58.738Z,94.44
2023-02-25T01:29:39.065Z,93.64
2023-02-25T01:32:11.679Z,93.34
2023-02-25T01:34:40.080Z,93.25
2023-02-25T01:37:08.166Z,93.45
2023-02-25T01:39:40.585Z,93.25
2023-02-25T01:42:15.277Z,93.86
2023-02-25T01:45:19.400Z,94.23
2023-02-25T01:48:09.298Z,93.73
2023-02-25T01:50:45.601Z,94.19
2023-02-25T01:53:14.644Z,93.95
2023-02-25T01:55:42.582Z,94.12
2023-02-25T01:58:12.206Z,93.90
2023-02-25T02:00:39.759Z,94.16
2023-02-25T02:03:15.863Z,93.97
2023-02-25T02:05:53.833Z,93.81
2023-02-25T02:08:21.145Z,94.03
2023-02-25T02:10:49.438Z,94.01
2023-02-25T02:13:16.886Z,93.98
2023-02-25T02:17:06.935Z,93.84
2023-02-25T02:19:56.304Z,93.80
2023-02-25T02:22:41.086Z,94.12
2023-02-25T02:25:53.401Z,93.76
2023-02-25T02:28:58.499Z,93.70
2023-02-25T02:32:01.254Z,93.54
2023-02-25T02:34:48.255Z,93.34
2023-02-25T02:37:26.122Z,92.65
2023-02-25T02:40:15.262Z,92.77
2023-02-25T02:43:04.474Z,92.80
2023-02-25T02:45:47.497Z,91.98
2023-02-25T02:48:41.284Z,92.73
2023-02-25T02:51:23.033Z,92.71
2023-02-25T02:53:55.249Z,93.06
2023-02-25T02:56:26.537Z,93.41
2023-02-25T02:59:12.419Z,93.47
2023-02-25T03:01:46.408Z,93.16
2023-02-25T03:04:19.268Z,93.95
2023-02-25T03:06:52.106Z,94.23
2023-02-25T03:09:23.879Z,93.44
2023-02-25T03:11:52.029Z,94.03
2023-02-25T03:14:19.604Z,93.65
2023-02-25T03:17:19.082Z,93.29
2023-02-25T03:20:00.311Z,92.98
2023-02-25T03:22:36.591Z,93.47
2023-02-25T03:25:24.873Z,93.46
2023-02-25T03:27:55.967Z,92.49
2023-02-25T03:30:48.787Z,92.62
2023-02-25T03:33:57.562Z,91.68
2023-02-25T03:36:37.523Z,92.74
2023-02-25T03:39:19.558Z,92.95
2023-02-25T03:41:52.318Z,93.08
2023-02-25T03:44:45.643Z,93.37
2023-02-25T03:47:14.190Z,92.54
2023-02-25T03:50:22.617Z,92.67
2023-02-25T03:52:54.918Z,93.18
2023-02-25T03:55:50.908Z,92.94
2023-02-25T03:58:18.371Z,93.26
2023-02-25T04:00:49.348Z,92.69
2023-02-25T04:03:16.719Z,92.99
2023-02-25T04:05:43.593Z,92.95
2023-02-25T04:08:16.130Z,93.61
2023-02-25T04:10:46.613Z,92.92
2023-02-25T04:13:16.977Z,92.47
2023-02-25T04:15:44.295Z,92.71
2023-02-25T04:18:11.252Z,92.77
2023-02-25T04:20:39.152Z,92.43
2023-02-25T04:23:06.049Z,92.54
2023-02-25T04:25:34.043Z,92.48
2023-02-25T04:28:01.073Z,92.85
2023-02-25T04:30:28.086Z,92.06
2023-02-25T04:32:55.047Z,91.86
2023-02-25T04:35:22.008Z,91.76
2023-02-25T04:37:48.852Z,92.22
2023-02-25T04:40:21.806Z,92.45
2023-02-25T04:42:49.369Z,92.33
2023-02-25T04:45:16.814Z,92.94
2023-02-25T04:47:44.538Z,92.22
2023-02-25T04:50:12.406Z,92.47
2023-02-25T04:52:39.463Z,91.79
2023-02-25T04:55:09.790Z,91.22
2023-02-25T04:57:42.647Z,92.07
2023-02-25T05:00:19.244Z,91.67
2023-02-25T05:02:47.769Z,91.77
2023-02-25T05:05:15.118Z,91.45
2023-02-25T05:07:42.943Z,91.75
2023-02-25T05:10:11.918Z,91.64
2023-02-25T05:12:39.371Z,92.65
2023-02-25T05:15:08.687Z,92.23
2023-02-25T05:17:36.157Z,93.22
2023-02-25T05:20:11.917Z,92.93
2023-02-25T05:22:39.889Z,94.08
2023-02-25T05:25:08.264Z,94.46
2023-02-25T05:27:35.558Z,95.09
2023-02-25T05:30:02.513Z,96.00
2023-02-25T05:32:31.985Z,95.67
2023-02-25T05:34:59.241Z,96.31
2023-02-25T05:37:26.449Z,95.59
2023-02-25T05:39:53.319Z,95.91
2023-02-25T05:42:20.243Z,95.60
2023-02-25T05:44:47.140Z,95.09
2023-02-25T05:47:15.124Z,95.91
2023-02-25T05:49:43.572Z,96.30
2023-02-25T05:52:12.991Z,95.89
2023-02-25T05:54:40.330Z,95.67
2023-02-25T05:57:07.475Z,95.52
2023-02-25T05:59:36.524Z,95.70
2023-02-25T06:02:04.455Z,95.32
2023-02-25T06:04:31.406Z,95.26
2023-02-25T06:06:58.301Z,95.31
2023-02-25T06:09:26.860Z,95.15
2023-02-25T06:11:53.839Z,95.52
2023-02-25T06:14:20.925Z,96.13
2023-02-25T06:16:47.927Z,95.51
2023-02-25T06:19:14.907Z,94.90
2023-02-25T06:21:41.802Z,95.06
2023-02-25T06:24:09.940Z,95.15
2023-02-25T06:26:41.817Z,95.79
2023-02-25T06:29:10.083Z,95.39
2023-02-25T06:31:37.494Z,95.31
2023-02-25T06:34:04.517Z,95.58
2023-02-25T06:36:32.595Z,94.87
2023-02-25T06:38:59.766Z,94.66
2023-02-25T06:41:27.247Z,94.89
2023-02-25T06:43:54.393Z,94.33
2023-02-25T06:46:24.573Z,94.80
2023-02-25T06:48:52.546Z,95.14
2023-02-25T06:51:19.421Z,94.48
2023-02-25T06:53:47.647Z,93.23
2023-02-25T06:56:16.251Z,93.05
2023-02-25T06:58:43.755Z,93.24
2023-02-25T07:01:16.066Z,92.36
2023-02-25T07:03:43.736Z,92.52
2023-02-25T07:06:11.108Z,92.84
2023-02-25T07:08:38.011Z,92.96
2023-02-25T07:11:19.821Z,92.95
2023-02-25T07:13:48.296Z,93.60
2023-02-25T07:16:16.956Z,92.79
2023-02-25T07:18:44.781Z,93.22
2023-02-25T07:21:12.418Z,93.72
2023-02-25T07:23:39.424Z,93.61
2023-02-25T07:26:09.180Z,92.84
2023-02-25T07:28:36.652Z,92.49
2023-02-25T07:31:13.943Z,92.93
2023-02-25T07:33:41.774Z,93.08
2023-02-25T07:36:09.747Z,93.46
2023-02-25T07:38:37.717Z,93.88
2023-02-25T07:41:10.551Z,93.94
2023-02-25T07:43:37.768Z,93.89
2023-02-25T07:46:05.736Z,93.49
2023-02-25T07:48:32.943Z,92.97
2023-02-25T07:51:13.488Z,93.32
2023-02-25T07:53:40.389Z,93.12
2023-02-25T07:56:08.701Z,92.49
2023-02-25T07:58:36.139Z,91.33
2023-02-25T08:01:33.133Z,90.91
2023-02-25T08:04:06.391Z,91.41
2023-02-25T08:06:39.728Z,90.88
2023-02-25T08:09:11.114Z,89.57
2023-02-25T08:11:39.149Z,90.48
2023-02-25T08:14:06.452Z,88.38
2023-02-25T08:16:33.818Z,88.59
2023-02-25T08:19:02.259Z,89.63
2023-02-25T08:21:30.812Z,88.91
2023-02-25T08:23:59.185Z,89.24
2023-02-25T08:26:27.564Z,87.46
2023-02-25T08:28:56.457Z,88.18
2023-02-25T08:31:24.458Z,86.91
2023-02-25T08:33:52.878Z,87.26
2023-02-25T08:36:24.125Z,86.85
2023-02-25T08:38:51.845Z,86.01
2023-02-25T08:41:21.969Z,85.34
2023-02-25T08:43:52.118Z,85.93
2023-02-25T08:46:21.083Z,84.62
2023-02-25T08:48:50.862Z,84.29
2023-02-25T08:51:17.857Z,84.59
2023-02-25T08:53:44.933Z,83.05
2023-02-25T08:56:14.583Z,82.74
2023-02-25T08:58:41.848Z,82.90
2023-02-25T09:01:15.438Z,81.61
2023-02-25T09:03:51.426Z,82.04
2023-02-25T09:06:25.034Z,82.71
2023-02-25T09:08:52.742Z,81.49
2023-02-25T09:11:20.496Z,83.78
2023-02-25T09:13:47.624Z,81.73
2023-02-25T09:16:17.985Z,79.61
2023-02-25T09:18:47.270Z,80.63
2023-02-25T09:21:14.992Z,75.94
2023-02-25T09:23:42.942Z,79.19
2023-02-25T09:26:10.548Z,77.11
2023-02-25T09:28:37.484Z,77.97
2023-02-25T09:31:04.735Z,76.54
2023-02-25T09:33:33.467Z,78.83
2023-02-25T09:36:16.319Z,77.70
2023-02-25T09:38:46.863Z,82.22
2023-02-25T09:41:48.915Z,84.13
2023-02-25T09:44:30.027Z,82.71
2023-02-25T09:47:21.999Z,82.27
2023-02-25T09:50:04.437Z,83.45
2023-02-25T09:52:41.785Z,86.00
2023-02-25T09:55:51.832Z,88.34
2023-02-25T09:58:53.810Z,90.69
2023-02-25T10:01:38.659Z,91.31
2023-02-25T10:04:24.320Z,91.44
2023-02-25T10:06:52.843Z,89.19
2023-02-25T10:09:54.031Z,88.16
2023-02-25T10:12:41.997Z,86.30
2023-02-25T10:15:52.435Z,86.46
2023-02-25T10:18:41.451Z,88.72
2023-02-25T10:21:49.126Z,85.60
2023-02-25T10:24:31.091Z,84.69
2023-02-25T10:27:20.672Z,85.80
2023-02-25T10:29:53.725Z,86.53
2023-02-25T10:32:28.035Z,86.56
2023-02-25T10:35:00.019Z,86.14
2023-02-25T10:37:33.994Z,85.86
2023-02-25T10:40:04.760Z,86.29
2023-02-25T10:42:31.993Z,85.98
2023-02-25T10:45:08.245Z,86.55
2023-02-25T10:47:40.139Z,86.49
2023-02-25T10:50:38.917Z,85.50
2023-02-25T10:53:18.552Z,84.56
2023-02-25T10:55:55.137Z,83.96
2023-02-25T10:58:31.509Z,83.35
2023-02-25T11:01:06.456Z,82.66
2023-02-25T11:04:02.691Z,80.18
2023-02-25T11:06:36.076Z,75.21
2023-02-25T11:09:32.256Z,75.93
2023-02-25T11:12:01.059Z,74.65
2023-02-25T11:14:31.286Z,76.08
2023-02-25T11:17:21.860Z,77.87
2023-02-25T11:20:05.508Z,76.57
2023-02-25T11:22:43.044Z,77.20
2023-02-25T11:25:18.774Z,77.63
2023-02-25T11:27:54.857Z,76.71
2023-02-25T11:30:35.224Z,76.35
2023-02-25T11:33:12.471Z,76.41
2023-02-25T11:35:40.488Z,74.10
2023-02-25T11:38:27.965Z,76.66
2023-02-25T11:40:55.424Z,73.89
2023-02-25T11:43:25.853Z,74.71
2023-02-25T11:46:27.507Z,74.42
2023-02-25T11:49:15.839Z,74.30
2023-02-25T11:52:03.340Z,75.99
2023-02-25T11:55:03.636Z,74.23
2023-02-25T11:57:42.353Z,76.27
2023-02-25T12:00:57.256Z,74.69
2023-02-25T12:04:01.266Z,74.83
2023-02-25T12:07:21.153Z,73.39
2023-02-25T12:10:24.311Z,75.49
2023-02-25T12:13:29.104Z,74.98
2023-02-25T12:16:40.254Z,73.49
2023-02-25T12:19:53.282Z,69.76
2023-02-25T12:22:48.002Z,69.04
2023-02-25T12:25:45.358Z,67.65
2023-02-25T12:28:33.102Z,65.33
2023-02-25T12:31:03.027Z,65.21
2023-02-25T12:34:26.404Z,65.36
2023-02-25T12:37:39.701Z,65.36
2023-02-25T12:40:26.907Z,69.21
2023-02-25T12:43:45.087Z,69.15
2023-02-25T12:47:01.995Z,66.21
2023-02-25T12:49:46.678Z,68.93
2023-02-25T12:52:47.469Z,67.79
2023-02-25T12:55:35.403Z,67.59
2023-02-25T12:58:42.340Z,65.49
2023-02-25T13:02:05.755Z,64.32
2023-02-25T13:05:23.387Z,63.36
2023-02-25T13:08:40.308Z,63.94
2023-02-25T13:11:15.548Z,62.90
2023-02-25T13:14:10.662Z,65.66
2023-02-25T13:16:53.014Z,63.34
2023-02-25T13:19:39.556Z,64.86
2023-02-25T13:22:31.156Z,63.33
2023-02-25T13:25:37.817Z,61.75
2023-02-25T13:28:26.565Z,62.11
2023-02-25T13:31:47.818Z,64.47
2023-02-25T13:34:44.869Z,64.35
2023-02-25T13:37:31.357Z,60.85
2023-02-25T13:40:20.664Z,62.36
2023-02-25T13:43:12.277Z,63.55
2023-02-25T13:46:30.166Z,64.79
2023-02-25T13:49:16.115Z,60.04
2023-02-25T13:52:19.204Z,62.21
2023-02-25T13:55:04.211Z,61.96
2023-02-25T13:57:58.551Z,63.31
2023-02-25T14:01:05.966Z,58.44
2023-02-25T14:03:53.470Z,59.59
2023-02-25T14:06:23.069Z,60.06
2023-02-25T14:09:12.342Z,57.01
2023-02-25T14:12:11.307Z,58.63
2023-02-25T14:15:07.943Z,57.67
2023-02-25T14:17:58.576Z,57.50
2023-02-25T14:21:23.341Z,59.18
2023-02-25T14:24:27.056Z,56.33
2023-02-25T14:27:24.989Z,57.06
2023-02-25T14:30:30.733Z,57.25
2023-02-25T14:33:19.625Z,58.42
2023-02-25T14:36:28.937Z,59.01
2023-02-25T14:39:21.761Z,61.37
2023-02-25T14:42:17.000Z,59.61
2023-02-25T14:44:59.510Z,61.55
2023-02-25T14:47:51.102Z,61.94
2023-02-25T14:50:34.238Z,62.29
2023-02-25T14:53:40.387Z,61.84
2023-02-25T14:56:34.882Z,59.78
2023-02-25T14:59:33.808Z,58.17
2023-02-25T15:02:17.303Z,60.75
2023-02-25T15:05:08.344Z,61.15
2023-02-25T15:08:31.056Z,60.42
2023-02-25T15:11:06.997Z,62.85
2023-02-25T15:13:42.848Z,66.06
2023-02-25T15:16:17.834Z,66.88
2023-02-25T15:19:21.711Z,67.64
2023-02-25T15:21:51.901Z,65.22
2023-02-25T15:24:27.531Z,67.05
2023-02-25T15:26:56.491Z,66.43
2023-02-25T15:29:32.494Z,67.95
2023-02-25T15:32:45.732Z,66.83
2023-02-25T15:35:20.743Z,63.01
2023-02-25T15:37:50.358Z,63.21
2023-02-25T15:40:17.100Z,67.28
2023-02-25T15:42:48.009Z,63.93
2023-02-25T15:45:27.333Z,63.03
2023-02-25T15:48:06.886Z,65.94
2023-02-25T15:50:43.028Z,61.94
2023-02-25T15:53:23.277Z,64.99
2023-02-25T15:55:51.431Z,64.77
2023-02-25T15:58:24.278Z,62.27
2023-02-25T16:00:57.342Z,59.52
2023-02-25T16:03:34.813Z,64.58
2023-02-25T16:06:20.703Z,61.47
2023-02-25T16:09:14.055Z,65.75
2023-02-25T16:11:53.688Z,62.94
2023-02-25T16:14:29.994Z,64.16
2023-02-25T16:17:00.511Z,62.82
2023-02-25T16:19:33.405Z,61.80
2023-02-25T16:22:10.312Z,65.40
2023-02-25T16:24:37.587Z,60.77
2023-02-25T16:27:13.578Z,61.90
2023-02-25T16:30:10.134Z,62.38
2023-02-25T16:33:10.867Z,62.93
2023-02-25T16:36:06.797Z,61.44
2023-02-25T16:38:46.962Z,63.03
2023-02-25T16:41:15.414Z,64.46
2023-02-25T16:43:44.550Z,62.34
2023-02-25T16:46:20.941Z,63.28
2023-02-25T16:48:58.579Z,65.04
2023-02-25T16:51:38.447Z,64.41
2023-02-25T16:54:13.024Z,63.14
2023-02-25T16:56:42.985Z,64.10
2023-02-25T16:59:09.709Z,63.50
2023-02-25T17:01:38.772Z,63.89
2023-02-25T17:04:17.102Z,63.37
2023-02-25T17:06:43.983Z,64.53
2023-02-25T17:09:26.493Z,65.06
2023-02-25T17:11:55.810Z,64.78
2023-02-25T17:14:24.858Z,66.30
2023-02-25T17:16:52.324Z,67.21
2023-02-25T17:19:22.987Z,66.20
2023-02-25T17:21:59.964Z,65.14
2023-02-25T17:24:31.378Z,66.27
2023-02-25T17:26:59.103Z,66.58
2023-02-25T17:29:35.402Z,67.11
2023-02-25T17:32:17.209Z,65.35
2023-02-25T17:34:44.439Z,65.67
2023-02-25T17:37:12.493Z,66.66
2023-02-25T17:39:40.366Z,67.15
2023-02-25T17:42:33.858Z,67.25
2023-02-25T17:45:02.153Z,66.96
2023-02-25T17:47:33.640Z,67.60
2023-02-25T17:50:29.267Z,68.03
2023-02-25T17:52:56.626Z,68.91
2023-02-25T17:55:34.201Z,69.16
2023-02-25T17:58:03.148Z,70.92
2023-02-25T18:00:34.813Z,70.64
2023-02-25T18:03:24.570Z,71.23
2023-02-25T18:05:58.919Z,70.96
2023-02-25T18:08:30.467Z,69.50
2023-02-25T18:11:03.154Z,70.08
2023-02-25T18:13:37.556Z,71.90
2023-02-25T18:16:15.757Z,71.15
2023-02-25T18:18:42.969Z,72.79
2023-02-25T18:21:10.854Z,73.56
2023-02-25T18:23:37.972Z,74.05
2023-02-25T18:26:24.010Z,73.29
2023-02-25T18:28:52.818Z,75.51
2023-02-25T18:31:20.281Z,73.57
2023-02-25T18:33:48.333Z,73.56
2023-02-25T18:36:35.504Z,74.58
2023-02-25T18:39:04.743Z,73.36
2023-02-25T18:41:33.508Z,74.48
2023-02-25T18:44:01.441Z,75.28
2023-02-25T18:46:29.067Z,74.35
2023-02-25T18:48:55.998Z,74.49
2023-02-25T18:51:22.883Z,75.65
2023-02-25T18:53:49.782Z,76.25
2023-02-25T18:56:17.622Z,74.56
2023-02-25T18:58:45.390Z,74.85
2023-02-25T19:01:25.107Z,73.06
2023-02-25T19:03:54.141Z,74.02
2023-02-25T19:06:21.055Z,74.58
2023-02-25T19:08:47.946Z,75.12
2023-02-25T19:11:23.505Z,73.56
2023-02-25T19:13:51.668Z,74.46
2023-02-25T19:16:19.279Z,75.00
2023-02-25T19:18:47.445Z,76.20
2023-02-25T19:21:17.855Z,74.85
2023-02-25T19:23:46.043Z,75.79
2023-02-25T19:26:16.296Z,75.26
2023-02-25T19:28:43.315Z,75.26
2023-02-25T19:31:11.404Z,74.09
2023-02-25T19:33:38.870Z,74.10
2023-02-25T19:36:08.386Z,74.17
2023-02-25T19:38:35.579Z,75.15
2023-02-25T19:41:04.258Z,76.82
2023-02-25T19:43:32.462Z,77.60
2023-02-25T19:45:59.519Z,76.78
2023-02-25T19:48:26.510Z,77.42
2023-02-25T19:50:53.422Z,76.89
2023-02-25T19:53:20.398Z,76.77
2023-02-25T19:55:47.481Z,77.13
2023-02-25T19:58:14.446Z,76.14
2023-02-25T20:00:45.865Z,77.21
2023-02-25T20:03:15.258Z,77.60
2023-02-25T20:05:42.863Z,77.87
2023-02-25T20:08:10.033Z,77.57
2023-02-25T20:10:36.970Z,77.90
2023-02-25T20:13:03.943Z,77.72
2023-02-25T20:15:31.058Z,78.08
2023-02-25T20:17:58.339Z,78.93
2023-02-25T20:20:25.253Z,78.29
2023-02-25T20:22:52.586Z,77.26
2023-02-25T20:25:19.721Z,76.54
2023-02-25T20:27:46.872Z,76.63
2023-02-25T20:30:17.546Z,77.01
2023-02-25T20:32:46.203Z,75.91
2023-02-25T20:35:20.261Z,75.31
2023-02-25T20:38:10.810Z,75.81
2023-02-25T20:40:37.768Z,75.88
2023-02-25T20:43:04.897Z,75.68
2023-02-25T20:45:32.495Z,75.23
2023-02-25T20:47:59.507Z,75.53
2023-02-25T20:50:29.509Z,75.60
2023-02-25T20:52:56.723Z,74.46
2023-02-25T20:55:24.256Z,75.23
2023-02-25T20:57:51.158Z,74.89
2023-02-25T21:00:20.527Z,75.45
2023-02-25T21:02:47.515Z,74.70
2023-02-25T21:05:14.531Z,75.27
2023-02-25T21:07:41.497Z,74.95
2023-02-25T21:10:10.515Z,75.58
2023-02-25T21:12:37.530Z,76.12
2023-02-25T21:15:05.070Z,75.52
2023-02-25T21:17:32.144Z,76.98
2023-02-25T21:19:59.087Z,76.78
2023-02-25T21:22:26.098Z,77.59
2023-02-25T21:24:53.121Z,76.91
2023-02-25T21:27:20.006Z,77.81
2023-02-25T21:29:47.143Z,78.60
2023-02-25T21:32:14.060Z,79.23
2023-02-25T21:34:40.966Z,79.43
2023-02-25T21:37:07.871Z,79.63
2023-02-25T21:39:34.788Z,79.86
2023-02-25T21:42:01.641Z,80.40
2023-02-25T21:44:28.593Z,80.40
2023-02-25T21:46:55.585Z,81.45
2023-02-25T21:49:22.577Z,80.58
2023-02-25T21:51:49.479Z,79.91
2023-02-25T21:54:17.161Z,80.69
2023-02-25T21:56:44.077Z,81.84
2023-02-25T21:59:11.200Z,82.48
2023-02-25T22:01:41.216Z,81.90
2023-02-25T22:04:09.769Z,82.49
2023-02-25T22:06:37.502Z,83.24
2023-02-25T22:09:06.250Z,82.01
2023-02-25T22:11:36.144Z,81.80
2023-02-25T22:14:05.618Z,82.77
2023-02-25T22:16:33.822Z,82.96
2023-02-25T22:19:01.350Z,82.02
2023-02-25T22:21:31.651Z,81.88
2023-02-25T22:24:01.451Z,80.83
2023-02-25T22:26:32.632Z,81.06
2023-02-25T22:29:06.852Z,80.32
2023-02-25T22:31:35.091Z,80.46
2023-02-25T22:34:02.883Z,81.02
2023-02-25T22:36:29.886Z,81.64
2023-02-25T22:38:57.582Z,80.45
2023-02-25T22:41:30.345Z,79.98
2023-02-25T22:43:58.709Z,80.29
2023-02-25T22:46:39.826Z,80.67
2023-02-25T22:49:08.478Z,80.68
2023-02-25T22:51:42.626Z,80.18
2023-02-25T22:54:11.868Z,80.78
2023-02-25T22:56:39.438Z,80.48
2023-02-25T22:59:07.401Z,80.37
2023-02-25T23:01:34.885Z,80.49
2023-02-25T23:04:03.652Z,82.22
2023-02-25T23:06:42.903Z,82.59
2023-02-25T23:09:11.095Z,81.60
2023-02-25T23:11:41.866Z,81.60
2023-02-25T23:14:09.179Z,81.65
2023-02-25T23:16:42.994Z,82.76
2023-02-25T23:19:15.700Z,82.63
2023-02-25T23:21:43.171Z,82.24
2023-02-25T23:24:16.143Z,82.75
2023-02-25T23:26:44.480Z,83.16
2023-02-25T23:29:12.729Z,83.01
2023-02-25T23:31:46.922Z,83.38
2023-02-25T23:34:20.514Z,83.26
2023-02-25T23:36:47.523Z,83.60
2023-02-25T23:39:15.605Z,83.71
2023-02-25T23:41:43.240Z,83.80
2023-02-25T23:44:12.226Z,83.74
2023-02-25T23:46:42.793Z,84.72
2023-02-25T23:49:12.158Z,84.13
2023-02-25T23:51:43.595Z,84.30
2023-02-25T23:54:14.843Z,85.30
2023-02-25T23:56:41.797Z,85.89
2023-02-25T23:59:10.457Z,85.60
